Coulter, Iowa
Current Conditions -  °F | °C
As of 6:35 AM on Thursday 23 Oct 2014 (Local Time) from KIFA Reporting Station
Moderate Rain Moderate Rain  
Wind Chill: 49°   Ceiling: 1400
Heat Index: 49°   Visibility: 4mi
Dew Point: 47°   Wind: 0mph
Humidity: 93%   Direction: NA
Pressure: 30.05"   Gusts: NA
Location:  42.74°N, 93.37°W
Report Text: KIFA 231135Z AUTO 00000KT 4SM RA OVC014 09/08 A3005 RMK AO2 P0009 T00920081
Loading
Personal Weather Stations






























Interactive Weather Map
Tropical Storm Tracking
New forecast layout! Learn more

10-Day Weather Forecast

Advertisements
Track Severe Weather on mobile